Terminal Aerodrome Forecast
Issued by NWS

Home | Current Version | Previous Version | Text Only | Print | Product List | Glossary On
Versions: 1 2 3 4 5 6 7 8 9 10 11 12 13 14 15 16 17 18 19 20 21 22 23
000
FTUS46 KMTR 160310 AAA
TAFSFO
TAF AMD
KSFO 160310Z 1603/1706 28008KT P6SM FEW008 OVC180
     FM160600 29013KT P6SM FEW008 OVC180
     FM160800 30018G26KT P6SM FEW030 SCT180
     FM161000 32024G32KT P6SM SCT200
     FM161200 34028G38KT P6SM FEW250
     FM161800 33018G24KT P6SM FEW250
     FM162100 33014KT P6SM SKC
     FM170300 31011KT P6SM SKC=

USA.gov is the U.S. government's official web portal to all federal, state and local government web resources and services.